Time;durP1;ratioP1;P1;durP2;ratioP2;P2;SDS_P1;SDS_P2;PMS_P1;PMS_P2;Temp;Humidity;BMP_temperature;BMP_pressure;BME280_temperature;BME280_humidity;BME280_pressure;Samples;Min_cycle;Max_cycle;Signal;HPM_P1;HPM_P2
2022/10/07 00:01:10;;;;;;;6.63;3.10;;;15.00;74.10;;;18.08;48.66;98779.94;5025257;28;20197;-52
2022/10/07 00:03:38;;;;;;;5.15;3.40;;;15.00;74.10;;;18.09;48.46;98776.22;5026041;28;20054;-52
2022/10/07 00:06:15;;;;;;;8.18;4.05;;;15.00;73.80;;;18.07;48.34;98772.88;5025222;28;20053;-51
2022/10/07 00:08:49;;;;;;;12.02;4.57;;;15.00;73.60;;;18.05;48.58;98764.16;5025338;28;20248;-50
2022/10/07 00:11:24;;;;;;;9.68;3.83;;;15.00;73.90;;;18.06;48.57;98767.66;5025858;28;20060;-48
2022/10/07 00:13:56;;;;;;;5.78;3.53;;;15.00;74.00;;;18.05;48.61;98764.16;5025267;28;20050;-50
2022/10/07 00:16:33;;;;;;;9.65;4.22;;;14.90;74.10;;;18.04;48.62;98772.41;5024633;28;20046;-48
2022/10/07 00:19:06;;;;;;;8.13;4.18;;;14.90;74.60;;;18.02;48.71;98769.06;5024038;28;20042;-51
2022/10/07 00:21:36;;;;;;;9.95;4.95;;;14.90;74.50;;;18.03;48.58;98768.03;5025116;28;20050;-48
2022/10/07 00:24:06;;;;;;;8.52;3.88;;;15.00;74.20;;;18.03;48.67;98768.88;5024708;28;20042;-49
2022/10/07 00:26:36;;;;;;;9.40;4.32;;;14.90;74.10;;;18.01;48.42;98761.97;5024472;28;20046;-52
2022/10/07 00:29:05;;;;;;;5.05;3.67;;;14.90;74.00;;;17.99;48.58;98764.03;5022605;28;20047;-48
2022/10/07 00:31:35;;;;;;;6.68;3.80;;;14.80;74.20;;;17.96;48.60;98762.53;5024844;28;20095;-50
2022/10/07 00:34:04;;;;;;;7.45;4.18;;;14.80;74.40;;;17.94;48.31;98767.28;5024846;28;20366;-52
2022/10/07 00:36:36;;;;;;;4.78;3.15;;;14.80;74.00;;;17.91;48.43;98756.84;5024236;28;20041;-51
2022/10/07 00:39:08;;;;;;;9.43;4.50;;;14.70;74.00;;;17.86;48.31;98751.19;5039886;28;20046;-49
2022/10/07 00:41:49;;;;;;;7.30;3.80;;;14.70;74.10;;;17.81;48.30;98748.16;5024561;28;20248;-50
2022/10/07 00:44:28;;;;;;;7.10;3.63;;;14.60;74.10;;;17.80;48.44;98743.78;5023438;28;20050;-48
2022/10/07 00:46:59;;;;;;;6.72;4.43;;;14.60;74.00;;;17.75;48.32;98743.50;5023989;28;20053;-47
2022/10/07 00:49:29;;;;;;;7.88;3.20;;;14.50;73.80;;;17.72;47.80;98739.31;5024349;28;20054;-50
2022/10/07 00:51:57;;;;;;;7.15;3.72;;;14.50;73.30;;;17.68;48.08;98730.75;5024192;28;20219;-49
2022/10/07 00:54:25;;;;;;;6.80;3.50;;;14.50;73.20;;;17.66;47.65;98738.19;5023474;28;20251;-50
2022/10/07 00:56:53;;;;;;;8.32;3.17;;;14.50;72.60;;;17.63;47.40;98725.06;5023699;28;20041;-51
2022/10/07 00:59:21;;;;;;;4.55;2.75;;;14.50;71.80;;;17.61;47.60;98724.41;5024074;28;20346;-51
2022/10/07 01:01:49;;;;;;;7.40;2.58;;;14.50;71.80;;;17.60;47.32;98719.19;5022155;28;20052;-50
2022/10/07 01:04:19;;;;;;;5.28;2.88;;;14.40;71.30;;;17.57;47.38;98720.41;5024111;28;20385;-52
2022/10/07 01:06:46;;;;;;;4.88;3.03;;;14.40;71.50;;;17.57;47.44;98714.19;5024159;28;20056;-49
2022/10/07 01:09:14;;;;;;;8.57;3.38;;;14.40;71.50;;;17.57;47.17;98716.88;5023070;28;20042;-51
2022/10/07 01:12:04;;;;;;;4.90;2.85;;;14.40;71.30;;;17.54;47.44;98706.47;5022402;28;20049;-49
2022/10/07 01:14:51;;;;;;;8.07;3.13;;;14.40;70.50;;;17.51;46.99;98710.34;5023997;28;20217;-53
2022/10/07 01:17:28;;;;;;;5.68;2.50;;;14.30;71.10;;;17.46;47.34;98708.19;5022443;28;20045;-49
2022/10/07 01:20:11;;;;;;;6.50;2.85;;;14.20;71.50;;;17.40;47.13;98706.22;5023913;28;20044;-52
2022/10/07 01:23:16;;;;;;;7.90;2.63;;;14.20;71.40;;;17.39;47.21;98696.47;5021671;28;20046;-48
2022/10/07 01:25:49;;;;;;;5.40;2.33;;;14.20;71.30;;;17.37;47.12;98698.50;5043488;28;20045;-50
2022/10/07 01:29:02;;;;;;;5.88;2.58;;;14.20;71.10;;;17.40;47.37;98690.06;5042955;28;20063;-48
2022/10/07 01:31:37;;;;;;;5.28;2.28;;;14.30;71.00;;;17.45;47.28;98684.16;5043437;28;20049;-51
2022/10/07 01:34:09;;;;;;;4.65;2.80;;;14.30;70.80;;;17.44;47.32;98677.91;5042495;28;20057;-48
2022/10/07 01:36:39;;;;;;;9.43;3.25;;;14.30;70.80;;;17.46;47.59;98677.75;5025553;28;20046;-50
2022/10/07 01:39:14;;;;;;;9.25;3.60;;;14.40;71.00;;;17.48;47.36;98671.16;5025882;28;20052;-50
2022/10/07 01:41:42;;;;;;;5.03;3.28;;;14.40;70.80;;;17.51;47.31;98669.97;5042641;28;20340;-49
2022/10/07 01:44:12;;;;;;;6.47;3.25;;;14.50;70.90;;;17.49;47.42;98667.47;5042190;28;20045;-51
2022/10/07 01:46:42;;;;;;;4.95;2.75;;;14.50;70.90;;;17.53;47.63;98659.84;5041841;28;20060;-49
2022/10/07 01:49:11;;;;;;;8.55;2.80;;;14.50;71.00;;;17.52;47.41;98659.03;5026400;28;20399;-49
2022/10/07 01:51:56;;;;;;;9.15;2.70;;;14.50;70.80;;;17.54;47.26;98655.31;5043618;28;20260;-50
2022/10/07 01:54:32;;;;;;;7.88;3.10;;;14.50;70.50;;;17.57;47.29;98660.34;5042060;28;20075;-52
2022/10/07 01:57:37;;;;;;;4.65;2.33;;;14.50;70.70;;;17.57;47.28;98649.56;5041386;28;20045;-47
2022/10/07 02:00:13;;;;;;;5.80;2.42;;;14.50;70.60;;;17.59;47.18;98656.44;5042137;28;20045;-47
2022/10/07 02:03:09;;;;;;;9.38;2.88;;;14.50;70.80;;;17.54;47.28;98650.75;5041455;28;20051;-49
2022/10/07 02:06:29;;;;;;;5.90;3.15;;;14.40;71.00;;;17.47;47.36;98652.50;5041652;28;20056;-51
2022/10/07 02:09:05;;;;;;;3.47;2.80;;;14.40;71.20;;;17.45;47.46;98643.78;5028317;28;20071;-48
2022/10/07 02:11:41;;;;;;;6.53;2.88;;;14.30;71.60;;;17.41;47.51;98645.13;5041591;28;20042;-52
2022/10/07 02:14:28;;;;;;;6.53;2.53;;;14.30;71.70;;;17.38;47.57;98640.97;5009533;28;20045;-52
2022/10/07 02:17:04;;;;;;;5.90;3.33;;;14.30;72.00;;;17.33;48.32;98640.66;5042168;28;20069;-50
2022/10/07 02:19:38;;;;;;;3.92;2.50;;;14.20;73.00;;;17.30;48.41;98638.34;5041803;28;20060;-52
2022/10/07 02:22:10;;;;;;;8.13;2.60;;;14.20;73.60;;;17.29;48.48;98636.66;5042191;28;20050;-48
2022/10/07 02:24:39;;;;;;;8.00;2.85;;;14.10;73.90;;;17.27;48.71;98630.63;5042679;28;20239;-50
2022/10/07 02:27:15;;;;;;;6.10;2.95;;;14.10;74.10;;;17.24;48.43;98631.81;5041002;28;20283;-53
2022/10/07 02:29:50;;;;;;;6.25;3.13;;;14.10;74.70;;;17.23;49.03;98626.59;5025893;28;20252;-49
2022/10/07 02:32:24;;;;;;;4.57;2.25;;;14.10;74.70;;;17.22;49.03;98619.56;5025896;28;20056;-50
2022/10/07 02:34:59;;;;;;;5.70;2.40;;;14.10;74.90;;;17.22;48.91;98625.78;5025616;28;20053;-48
2022/10/07 02:37:34;;;;;;;6.43;3.65;;;14.10;75.40;;;17.21;49.20;98612.50;5040148;28;20055;-54
2022/10/07 02:40:06;;;;;;;5.72;2.83;;;14.10;75.80;;;17.22;49.42;98614.19;5026373;28;20051;-53
2022/10/07 02:42:51;;;;;;;5.40;2.85;;;14.10;75.90;;;17.26;49.41;98615.50;5042184;28;20056;-52
2022/10/07 02:45:48;;;;;;;6.57;3.65;;;14.10;76.00;;;17.19;49.45;98612.69;5042096;28;20052;-51
2022/10/07 02:48:31;;;;;;;6.55;2.45;;;14.10;76.80;;;17.17;49.78;98619.25;5024385;28;20045;-52
2022/10/07 02:51:05;;;;;;;3.67;2.58;;;14.00;77.40;;;17.16;49.91;98612.19;5041621;28;20357;-53
2022/10/07 02:53:34;;;;;;;;;;;14.00;77.50;;;17.27;49.32;98611.78;5041315;28;20051;-53
2022/10/07 02:56:04;;;;;;;6.32;3.20;;;14.00;78.50;;;17.23;49.48;98608.59;5025032;28;19924;-52
2022/10/07 02:58:34;;;;;;;6.65;2.95;;;14.00;77.40;;;17.18;49.70;98612.88;5041117;28;20321;-53
2022/10/07 03:01:04;;;;;;;8.57;3.58;;;14.00;77.00;;;17.12;49.99;98601.81;5041052;28;20055;-50
2022/10/07 03:03:32;;;;;;;7.38;3.40;;;14.00;77.40;;;17.08;49.91;98591.59;5040890;28;20125;-51
2022/10/07 03:06:05;;;;;;;6.00;2.63;;;13.90;77.40;;;17.10;49.70;98597.63;5041461;28;20059;-51
2022/10/07 03:08:35;;;;;;;9.93;2.80;;;14.00;76.90;;;17.10;49.61;98592.25;5040576;28;20239;-50
2022/10/07 03:11:03;;;;;;;4.70;3.03;;;14.00;76.50;;;17.12;49.34;98596.44;5041045;28;20236;-51
2022/10/07 03:13:31;;;;;;;6.57;2.78;;;14.10;76.00;;;17.14;49.24;98596.25;5057388;28;20049;-50
2022/10/07 03:16:04;;;;;;;5.32;3.05;;;14.10;75.30;;;17.11;49.01;98591.22;5040702;28;20049;-50
2022/10/07 03:18:33;;;;;;;6.07;2.70;;;14.00;75.00;;;17.09;49.30;98596.78;5040274;28;20060;-50
2022/10/07 03:21:17;;;;;;;7.32;4.03;;;13.90;75.20;;;17.11;49.32;98589.34;5040659;28;20215;-52
2022/10/07 03:23:51;;;;;;;10.32;4.20;;;14.00;75.90;;;17.16;49.44;98585.28;5057451;28;20049;-50
2022/10/07 03:26:21;;;;;;;6.90;3.33;;;14.00;76.30;;;17.12;49.52;98582.97;5061654;28;20057;-53
2022/10/07 03:28:49;;;;;;;5.25;3.28;;;14.00;76.70;;;17.06;49.66;98585.53;5043514;28;20304;-51
2022/10/07 03:31:19;;;;;;;5.55;2.80;;;13.90;77.00;;;17.07;49.79;98577.28;5043754;28;20049;-51
2022/10/07 03:33:49;;;;;;;4.95;2.65;;;13.90;77.00;;;17.07;49.30;98569.22;5044119;28;20050;-49
2022/10/07 03:36:18;;;;;;;6.18;2.63;;;14.00;76.30;;;17.07;49.59;98565.69;5044755;28;20049;-49
2022/10/07 03:38:48;;;;;;;7.13;3.95;;;14.00;76.10;;;17.07;49.33;98565.69;5044342;28;20252;-48
2022/10/07 03:41:18;;;;;;;8.55;2.83;;;14.00;75.70;;;17.06;49.33;98564.00;5044704;28;20274;-52
2022/10/07 03:43:49;;;;;;;8.18;3.00;;;14.00;75.80;;;17.16;49.31;98566.47;5044006;28;20053;-51
2022/10/07 03:46:21;;;;;;;5.13;2.90;;;14.10;75.40;;;17.19;48.86;98566.94;5044471;28;20054;-52
2022/10/07 03:48:51;;;;;;;6.10;3.13;;;14.10;74.70;;;17.21;48.87;98570.28;5043876;28;20045;-51
2022/10/07 03:51:19;;;;;;;5.95;3.67;;;14.10;74.30;;;17.22;48.93;98563.06;5044834;28;20045;-49
2022/10/07 03:53:47;;;;;;;5.97;3.15;;;14.20;74.60;;;17.23;48.95;98565.56;5044473;28;20392;-48
2022/10/07 03:56:16;;;;;;;6.85;3.58;;;14.10;74.60;;;17.23;49.11;98565.56;5043951;28;20053;-51
2022/10/07 03:58:44;;;;;;;7.05;3.72;;;14.10;74.90;;;17.24;48.94;98577.19;5044892;28;20050;-48
2022/10/07 04:01:16;;;;;;;5.82;2.58;;;14.10;75.20;;;17.25;49.24;98558.16;5044474;28;20049;-51
2022/10/07 04:03:52;;;;;;;7.57;2.95;;;14.20;74.80;;;17.28;48.74;98562.34;5044271;28;20060;-50
2022/10/07 04:06:20;;;;;;;5.55;2.50;;;14.20;74.10;;;17.28;48.72;98557.78;5045023;28;20051;-52
2022/10/07 04:08:57;;;;;;;5.95;2.78;;;14.20;73.80;;;17.28;48.86;98556.94;5060315;28;20049;-49
2022/10/07 04:11:25;;;;;;;8.90;2.60;;;14.10;73.90;;;17.25;48.58;98552.78;5045020;28;20049;-52
2022/10/07 04:13:55;;;;;;;5.68;2.65;;;14.20;73.90;;;17.22;48.76;98553.13;5044132;28;20049;-51
2022/10/07 04:16:26;;;;;;;4.13;2.70;;;14.10;73.90;;;17.22;48.80;98549.63;5060763;28;20060;-53
2022/10/07 04:18:56;;;;;;;7.65;2.88;;;14.20;74.00;;;17.22;49.01;98539.69;5043672;28;20061;-50
2022/10/07 04:21:27;;;;;;;5.10;3.00;;;14.10;74.30;;;17.25;48.89;98546.53;5043396;28;20255;-50
2022/10/07 04:23:55;;;;;;;6.55;2.75;;;14.10;74.40;;;17.26;48.96;98545.53;5044434;28;20060;-47
2022/10/07 04:26:22;;;;;;;6.90;2.85;;;14.20;74.30;;;17.25;48.99;98547.41;5043674;28;20057;-50
2022/10/07 04:28:51;;;;;;;6.20;3.17;;;14.20;74.40;;;17.29;49.06;98542.47;5043555;28;20058;-50
2022/10/07 04:31:21;;;;;;;4.93;3.22;;;14.20;74.50;;;17.31;49.03;98546.66;5044381;28;20041;-49
2022/10/07 04:33:59;;;;;;;6.20;3.00;;;14.20;74.40;;;17.32;48.86;98539.41;5043506;28;20250;-47
2022/10/07 04:36:34;;;;;;;9.15;3.72;;;14.20;74.40;;;17.31;48.85;98533.22;5042000;28;20053;-49
2022/10/07 04:39:14;;;;;;;6.68;2.42;;;14.20;74.60;;;17.32;48.98;98531.34;5043301;28;20041;-52
2022/10/07 04:41:53;;;;;;;4.55;2.80;;;14.20;75.10;;;17.28;49.15;98528.19;5043553;28;20049;-48
2022/10/07 04:44:26;;;;;;;4.85;2.38;;;14.10;75.40;;;17.30;49.20;98528.00;5043830;28;20351;-52
2022/10/07 04:47:02;;;;;;;7.22;3.63;;;14.20;75.50;;;17.30;49.29;98528.84;5042249;28;20251;-50
2022/10/07 04:49:31;;;;;;;4.15;2.72;;;14.20;75.60;;;17.30;49.53;98528.00;5059632;28;20055;-51
2022/10/07 04:52:00;;;;;;;10.40;2.70;;;14.20;75.90;;;17.32;49.59;98524.09;5043062;28;20235;-48
2022/10/07 04:54:34;;;;;;;4.80;2.53;;;14.20;75.80;;;17.36;49.27;98524.56;5042795;28;20053;-50
2022/10/07 04:57:02;;;;;;;7.10;3.25;;;14.30;76.00;;;17.37;49.54;98526.25;5043575;28;20041;-50
2022/10/07 04:59:31;;;;;;;8.70;3.13;;;14.30;76.10;;;17.38;49.63;98519.84;5043000;28;20056;-50
2022/10/07 05:02:01;;;;;;;10.10;3.92;;;14.30;76.20;;;17.39;49.51;98517.97;5059185;28;20049;-47
2022/10/07 05:04:32;;;;;;;7.75;3.70;;;14.30;76.20;;;17.38;49.78;98519.00;5059644;28;20052;-50
2022/10/07 05:07:02;;;;;;;9.25;3.58;;;14.30;76.40;;;17.37;49.73;98512.81;5058507;28;20053;-53
2022/10/07 05:09:31;;;;;;;14.50;4.32;;;14.30;76.60;;;17.36;49.93;98515.66;5042752;28;20049;-51
2022/10/07 05:11:59;;;;;;;7.38;3.80;;;14.30;77.10;;;17.34;49.98;98526.63;5042572;28;20058;-48
2022/10/07 05:14:30;;;;;;;9.05;4.15;;;14.30;77.40;;;17.35;50.09;98522.06;5059116;28;20057;-49
2022/10/07 05:16:59;;;;;;;8.25;3.47;;;14.20;77.70;;;17.32;50.31;98515.19;5058989;28;20052;-50
2022/10/07 05:19:31;;;;;;;4.97;3.25;;;14.20;78.10;;;17.31;50.46;98514.38;5043264;28;20045;-53
2022/10/07 05:22:00;;;;;;;4.35;3.28;;;14.20;78.20;;;17.31;50.31;98517.06;5058619;28;20263;-51
2022/10/07 05:24:28;;;;;;;10.57;4.63;;;14.20;78.60;;;17.29;50.53;98507.47;5042690;28;20049;-49
2022/10/07 05:26:56;;;;;;;6.63;3.50;;;14.10;79.00;;;17.26;50.69;98511.38;5058300;28;20060;-51
2022/10/07 05:29:24;;;;;;;8.13;4.85;;;14.10;79.50;;;17.23;50.68;98514.44;5042669;28;20049;-53
2022/10/07 05:31:53;;;;;;;6.60;3.38;;;14.00;79.80;;;17.23;50.79;98514.44;5042940;28;20239;-48
2022/10/07 05:34:25;;;;;;;9.18;4.15;;;14.10;80.20;;;17.24;50.92;98515.28;5042373;28;20059;-50
2022/10/07 05:36:54;;;;;;;5.05;4.10;;;14.10;80.60;;;17.23;50.83;98506.34;5042015;28;20063;-49
2022/10/07 05:39:22;;;;;;;7.40;3.65;;;14.10;80.70;;;17.24;51.14;98513.41;5042126;28;20041;-52
2022/10/07 05:41:55;;;;;;;5.15;3.25;;;14.10;80.50;;;17.24;51.08;98516.13;5042383;28;20052;-51
2022/10/07 05:44:30;;;;;;;8.07;3.22;;;14.20;80.40;;;17.26;51.11;98502.47;5058339;28;20060;-49
2022/10/07 05:47:00;;;;;;;7.75;4.00;;;14.20;81.30;;;17.26;51.22;98507.88;5041367;28;20045;-51
2022/10/07 05:49:29;;;;;;;6.88;3.25;;;14.20;80.70;;;17.28;51.40;98503.97;5058472;28;20059;-50
2022/10/07 05:51:58;;;;;;;11.10;4.07;;;14.20;80.80;;;17.28;51.56;98505.81;5058139;28;20061;-49
2022/10/07 05:54:26;;;;;;;7.15;4.32;;;14.20;81.20;;;17.28;51.37;98500.44;5058182;28;20072;-50
2022/10/07 05:56:56;;;;;;;11.98;3.88;;;14.20;81.20;;;17.29;51.23;98496.72;5041607;28;20049;-51
2022/10/07 05:59:24;;;;;;;7.70;3.83;;;14.10;81.60;;;17.26;51.38;98495.25;5058654;28;20045;-53
2022/10/07 06:01:56;;;;;;;11.65;4.97;;;14.10;81.80;;;17.23;51.39;98495.59;5041547;28;20053;-52
2022/10/07 06:04:26;;;;;;;9.00;3.60;;;14.10;82.20;;;17.21;51.67;98503.00;5042902;28;20051;-51
2022/10/07 06:06:54;;;;;;;6.90;3.85;;;14.10;82.10;;;17.23;51.60;98494.75;5041146;28;20049;-49
2022/10/07 06:15:08;;;;;;;8.77;4.22;;;14.30;82.30;;;17.31;51.83;98494.66;5041324;28;20365;-49
2022/10/07 06:17:43;;;;;;;9.98;4.63;;;14.20;82.80;;;17.27;52.04;98491.53;5040635;28;20049;-50
2022/10/07 06:20:14;;;;;;;8.20;4.40;;;14.20;83.60;;;17.25;51.88;98496.28;5041751;28;20081;-50
2022/10/07 06:22:43;;;;;;;11.57;5.00;;;14.10;84.10;;;17.26;52.16;98497.09;5041331;28;20053;-47
2022/10/07 06:25:13;;;;;;;11.90;4.20;;;14.10;84.00;;;17.27;52.00;98494.22;5041562;28;20061;-50
2022/10/07 06:27:41;;;;;;;15.00;5.72;;;14.20;83.70;;;17.25;52.24;98488.19;5024754;28;20060;-50
2022/10/07 06:30:11;;;;;;;15.15;5.43;;;14.20;84.00;;;17.27;52.43;98490.69;5039678;28;20367;-49
2022/10/07 06:32:39;;;;;;;13.25;5.07;;;14.20;84.80;;;17.26;52.46;98489.84;5040365;28;20060;-48
2022/10/07 06:35:08;;;;;;;14.45;5.43;;;14.20;85.30;;;17.25;52.43;98488.19;5041574;28;20049;-48
2022/10/07 06:37:38;;;;;;;15.60;4.70;;;14.20;85.40;;;17.28;52.54;98489.69;5040682;28;20045;-50
2022/10/07 06:40:08;;;;;;;10.98;3.95;;;14.20;85.60;;;17.27;52.76;98488.00;5040962;28;20056;-51
2022/10/07 06:42:35;;;;;;;10.52;4.18;;;14.20;85.80;;;17.25;52.62;98488.19;5041055;28;20056;-47
2022/10/07 06:45:18;;;;;;;10.00;4.38;;;14.20;86.10;;;17.30;52.84;98493.84;5043271;28;20037;-49
2022/10/07 06:47:48;;;;;;;6.10;4.55;;;14.30;86.30;;;17.34;52.73;98488.09;5040769;28;20060;-52
2022/10/07 06:50:16;;;;;;;13.32;4.78;;;14.40;86.10;;;17.37;52.78;98485.03;5041193;28;20386;-51
2022/10/07 06:52:44;;;;;;;7.32;3.40;;;14.40;86.10;;;17.41;52.57;98480.94;5042136;28;20050;-53
2022/10/07 06:55:12;;;;;;;7.20;3.70;;;14.40;86.10;;;17.45;52.86;98490.34;5041006;28;20076;-52
2022/10/07 06:57:42;;;;;;;7.75;3.88;;;14.50;86.20;;;17.49;52.74;98486.28;5040550;28;20045;-48
2022/10/07 07:00:16;;;;;;;4.95;3.38;;;14.60;86.00;;;17.56;52.90;98483.66;5044064;28;20045;-50
2022/10/07 07:02:44;;;;;;;6.45;3.80;;;14.60;86.10;;;17.59;52.92;98486.00;5044675;28;20255;-48
2022/10/07 07:05:14;;;;;;;7.55;4.93;;;14.70;86.10;;;17.61;52.96;98482.09;5044937;28;20049;-50
2022/10/07 07:07:44;;;;;;;7.10;3.75;;;14.70;86.00;;;17.70;52.96;98482.84;5045905;28;20050;-49
2022/10/07 07:10:12;;;;;;;10.40;3.97;;;14.80;85.60;;;17.77;52.81;98488.31;5044898;28;20050;-49
2022/10/07 07:12:43;;;;;;;5.43;3.80;;;14.90;85.60;;;17.80;52.97;98479.84;5043849;28;20057;-50
2022/10/07 07:15:11;;;;;;;9.45;4.38;;;14.90;85.90;;;17.87;53.19;98483.47;5061808;28;20053;-51
2022/10/07 07:17:40;;;;;;;7.50;4.20;;;15.00;85.90;;;17.91;53.08;98482.09;5061245;28;20057;-51
2022/10/07 07:20:10;;;;;;;6.70;3.70;;;15.10;85.70;;;17.99;53.04;98484.69;5062024;28;20048;-49
2022/10/07 07:22:39;;;;;;;7.55;4.03;;;15.20;85.50;;;18.07;52.89;98484.59;5061654;28;20052;-52
2022/10/07 07:25:08;;;;;;;5.00;3.67;;;15.30;85.30;;;18.14;53.05;98486.50;5045120;28;20045;-47
2022/10/07 07:27:37;;;;;;;8.70;4.35;;;15.40;84.70;;;18.20;52.68;98483.06;5061341;28;20382;-52
2022/10/07 07:30:07;;;;;;;6.78;3.85;;;15.50;84.30;;;18.24;52.78;98482.50;5061964;28;20057;-52
2022/10/07 07:32:35;;;;;;;9.35;4.57;;;15.60;84.10;;;18.34;52.93;98481.34;5045723;28;20443;-50
2022/10/07 07:35:05;;;;;;;9.73;4.45;;;15.60;83.80;;;18.41;52.78;98477.69;5045175;28;20053;-53
2022/10/07 07:37:33;;;;;;;7.95;4.68;;;15.70;83.80;;;18.55;52.66;98485.94;5043987;28;20050;-50
2022/10/07 07:40:02;;;;;;;5.78;4.10;;;15.80;83.60;;;18.58;52.54;98472.06;5045506;28;20320;-51
2022/10/07 07:42:32;;;;;;;7.55;4.40;;;15.90;83.20;;;18.62;52.57;98482.28;5060453;28;20049;-52
2022/10/07 07:45:00;;;;;;;10.38;4.45;;;16.00;82.90;;;18.67;52.57;98477.16;5045325;28;20037;-52
2022/10/07 07:47:28;;;;;;;6.72;3.95;;;16.10;82.80;;;18.75;52.63;98476.19;5044683;28;20056;-50
2022/10/07 07:49:56;;;;;;;8.50;4.28;;;16.10;82.80;;;18.81;52.49;98470.03;5061458;28;20057;-54
2022/10/07 07:52:29;;;;;;;8.10;4.55;;;16.10;82.50;;;18.83;52.60;98470.69;5044508;28;20059;-52
2022/10/07 07:55:01;;;;;;;8.10;4.60;;;16.20;82.50;;;18.88;52.64;98478.19;5044473;28;20072;-50
2022/10/07 07:57:30;;;;;;;11.20;4.60;;;16.20;82.40;;;18.92;52.58;98476.78;5043878;28;20060;-47
2022/10/07 08:00:04;;;;;;;8.48;4.72;;;16.30;82.50;;;18.99;52.49;98477.66;5044382;28;20359;-51
2022/10/07 08:02:41;;;;;;;6.53;4.68;;;16.30;82.30;;;19.06;52.50;98478.56;5049285;28;20044;-52
2022/10/07 08:05:14;;;;;;;8.63;4.50;;;16.40;82.30;;;19.13;52.50;98477.75;5060430;28;20077;-52
2022/10/07 08:07:48;;;;;;;7.80;5.70;;;16.40;82.30;;;19.20;52.50;98470.56;5032551;28;20054;-48
2022/10/07 08:10:16;;;;;;;10.43;5.70;;;16.50;82.30;;;19.22;52.39;98473.91;5023768;28;20080;-50
2022/10/07 08:12:44;;;;;;;9.90;5.30;;;16.60;82.10;;;19.22;52.42;98474.72;5023709;28;20050;-52
2022/10/07 08:15:12;;;;;;;10.02;5.22;;;16.60;81.80;;;19.27;52.51;98472.28;5034225;28;20059;-50
2022/10/07 08:17:40;;;;;;;6.63;4.75;;;16.60;81.70;;;19.35;52.18;98473.13;5059491;28;20064;-51
2022/10/07 08:20:09;;;;;;;8.05;4.97;;;16.70;81.60;;;19.40;52.14;98465.28;5060300;28;20370;-50
2022/10/07 08:22:38;;;;;;;7.45;4.70;;;16.70;81.30;;;19.43;52.05;98465.72;5059471;28;20049;-50
2022/10/07 08:25:06;;;;;;;8.32;4.20;;;16.80;81.00;;;19.47;52.01;98463.47;5060535;28;20045;-53
2022/10/07 08:27:35;;;;;;;11.82;5.57;;;16.80;81.00;;;19.52;52.05;98473.66;5059241;28;20381;-48
2022/10/07 08:30:03;;;;;;;6.07;4.15;;;16.90;81.00;;;19.56;51.96;98456.88;5043438;28;20049;-53
2022/10/07 08:32:31;;;;;;;11.10;5.03;;;16.90;80.80;;;19.58;51.64;98464.75;5043711;28;20055;-51
2022/10/07 08:34:59;;;;;;;6.68;5.00;;;16.90;80.40;;;19.62;51.76;98453.38;5044542;28;20053;-50
2022/10/07 08:37:27;;;;;;;7.82;4.88;;;17.00;80.20;;;19.66;52.00;98456.53;5044009;28;20057;-52
2022/10/07 08:39:55;;;;;;;8.85;4.85;;;17.00;80.40;;;19.73;51.73;98459.28;5044434;28;20033;-50
2022/10/07 08:42:38;;;;;;;10.25;4.70;;;17.10;80.10;;;19.83;51.64;98455.19;5059495;28;20343;-52
2022/10/07 08:45:12;;;;;;;7.55;4.50;;;17.20;80.00;;;19.90;51.37;98455.19;5042292;28;20064;-48
2022/10/07 08:47:44;;;;;;;9.70;5.15;;;17.20;79.60;;;19.92;51.08;98457.72;5042897;28;20048;-50
2022/10/07 08:50:30;;;;;;;8.82;6.20;;;17.30;78.90;;;19.97;51.17;98453.38;5043376;28;20053;-51
2022/10/07 08:53:05;;;;;;;7.40;4.88;;;17.30;78.20;;;20.03;51.06;98446.31;5043184;28;20049;-52
2022/10/07 08:55:51;;;;;;;8.45;5.07;;;17.40;78.30;;;20.09;51.22;98442.81;5042963;28;20224;-51
2022/10/07 08:58:42;;;;;;;7.13;5.22;;;17.40;78.00;;;20.15;51.02;98444.69;5043718;28;20049;-50
2022/10/07 09:01:17;;;;;;;9.30;4.32;;;17.50;78.20;;;20.24;50.77;98431.84;5044133;28;20248;-50
2022/10/07 09:04:22;;;;;;;6.85;4.82;;;17.60;77.70;;;20.26;50.76;98432.47;5043729;28;20224;-50
2022/10/07 09:07:36;;;;;;;6.65;4.13;;;17.70;77.30;;;20.33;51.01;98427.06;5042524;28;20045;-53
2022/10/07 09:10:27;;;;;;;14.40;6.28;;;17.70;77.00;;;20.35;51.04;98433.09;5045370;28;20071;-49
2022/10/07 09:13:21;;;;;;;6.10;4.30;;;17.70;77.70;;;20.42;50.98;98434.78;5046252;28;20067;-50
2022/10/07 09:16:25;;;;;;;7.57;4.13;;;17.70;77.80;;;20.47;50.84;98434.16;5027628;28;20055;-51
2022/10/07 09:18:56;;;;;;;;;;;17.80;77.50;;;20.62;50.23;98423.19;5042902;28;20049;-49
2022/10/07 09:21:40;;;;;;;7.93;4.55;;;17.80;76.50;;;20.59;50.35;98421.72;5026092;28;19917;-48
2022/10/07 09:24:25;;;;;;;;;;;17.90;76.90;;;20.73;50.42;98425.28;5043080;28;20370;-51
2022/10/07 09:27:00;;;;;;;7.45;5.00;;;17.90;76.30;;;20.69;50.23;98423.19;5042121;28;20187;-49
2022/10/07 09:29:29;;;;;;;9.13;5.82;;;17.90;76.40;;;20.65;49.85;98420.06;5042418;28;20046;-50
2022/10/07 09:31:57;;;;;;;6.13;4.72;;;18.00;76.00;;;20.64;50.06;98413.81;5040205;28;20362;-49
2022/10/07 09:34:29;;;;;;;10.48;5.18;;;18.00;75.70;;;20.69;50.11;98406.97;5034986;28;20048;-48
2022/10/07 09:37:25;;;;;;;8.43;5.68;;;18.10;75.50;;;20.71;50.17;98410.28;5025490;28;20404;-49
2022/10/07 09:40:15;;;;;;;8.43;5.00;;;18.10;74.70;;;20.75;49.81;98403.44;5032428;28;20037;-51
2022/10/07 09:42:44;;;;;;;7.93;4.97;;;18.20;75.20;;;20.76;49.79;98403.22;5043051;28;20048;-52
2022/10/07 09:45:26;;;;;;;11.43;5.55;;;18.10;75.20;;;20.78;50.12;98400.28;5033700;28;20038;-51
2022/10/07 09:48:03;;;;;;;11.32;5.97;;;18.20;74.70;;;20.79;49.81;98400.09;5021832;28;20056;-49
2022/10/07 09:50:42;;;;;;;6.55;5.68;;;18.20;74.50;;;20.84;49.64;98407.59;5036154;28;20104;-53
2022/10/07 09:53:32;;;;;;;9.65;5.45;;;18.10;74.60;;;20.84;49.88;98403.00;5058518;28;20352;-49
2022/10/07 09:56:00;;;;;;;14.15;5.22;;;18.20;74.40;;;20.88;49.51;98402.56;5043574;28;20127;-53
2022/10/07 09:58:30;;;;;;;6.30;4.40;;;18.20;74.60;;;20.89;49.98;98396.97;5031511;28;20050;-52
2022/10/07 10:01:01;;;;;;;9.60;5.60;;;18.20;74.50;;;20.91;49.77;98399.47;5023075;28;20056;-51
2022/10/07 10:03:33;;;;;;;14.02;6.00;;;18.30;74.50;;;20.94;49.44;98396.34;5023158;28;20053;-52
2022/10/07 10:06:11;;;;;;;8.63;5.75;;;18.30;74.30;;;20.98;49.63;98393.00;5023091;28;20042;-50
2022/10/07 10:08:42;;;;;;;11.52;5.25;;;18.40;74.30;;;21.02;49.70;98393.41;5022541;28;20038;-51
2022/10/07 10:11:19;;;;;;;8.60;5.85;;;18.40;74.00;;;21.07;49.53;98398.19;5022356;28;20249;-48
2022/10/07 10:13:50;;;;;;;7.95;5.55;;;18.40;73.40;;;21.10;49.07;98392.38;5023075;28;20049;-52
2022/10/07 10:16:24;;;;;;;9.00;6.53;;;18.50;73.60;;;21.15;49.47;98389.84;5021634;28;20072;-48
2022/10/07 10:19:17;;;;;;;9.30;5.95;;;18.50;73.40;;;21.20;49.36;98377.34;5022467;28;20245;-48
2022/10/07 10:21:55;;;;;;;6.75;5.07;;;18.60;73.50;;;21.27;48.66;98376.47;5025686;28;20260;-51
2022/10/07 10:27:20;;;;;;;10.77;5.50;;;18.70;72.50;;;21.36;48.91;98372.50;5022325;28;20068;-51
2022/10/07 10:30:04;;;;;;;7.97;5.40;;;18.80;72.50;;;21.41;48.48;98364.59;5021488;28;20247;-52
2022/10/07 10:33:21;;;;;;;6.63;5.43;;;18.80;71.70;;;21.44;48.51;98361.47;5021743;28;20248;-48
2022/10/07 10:36:20;;;;;;;6.47;5.47;;;18.80;71.00;;;21.46;48.51;98362.09;5022565;28;20041;-47
2022/10/07 10:39:19;;;;;;;11.48;6.15;;;18.80;70.90;;;21.55;48.01;98358.09;5020983;28;20063;-49
2022/10/07 10:41:58;;;;;;;9.32;4.85;;;18.90;70.80;;;21.54;48.25;98353.72;5022516;28;20046;-50
2022/10/07 10:44:53;;;;;;;12.20;5.88;;;18.90;71.50;;;21.61;48.62;98354.53;5021638;28;20041;-53
2022/10/07 10:47:59;;;;;;;8.55;4.72;;;19.10;70.60;;;21.67;48.04;98342.00;5022666;28;20053;-46
2022/10/07 10:51:01;;;;;;;7.63;5.05;;;19.10;69.30;;;21.68;47.79;98340.97;5023080;28;20054;-49
2022/10/07 10:53:55;;;;;;;7.72;5.88;;;19.10;68.60;;;21.71;47.50;98347.81;5022565;28;20060;-50
2022/10/07 10:56:44;;;;;;;6.90;4.75;;;19.20;69.60;;;21.78;47.48;98343.19;5021772;28;20421;-50